createdAt,value
2022-10-08T00:00:00.388Z,180.0
2022-10-08T00:05:00.395Z,180.0
2022-10-08T00:10:00.353Z,180.0
2022-10-08T00:15:00.390Z,180.0
2022-10-08T00:20:00.420Z,180.0
2022-10-08T00:25:00.367Z,180.0
2022-10-08T00:30:00.394Z,180.0
2022-10-08T00:35:00.349Z,184.1
2022-10-08T00:40:00.407Z,187.2
2022-10-08T00:45:00.373Z,174.5
2022-10-08T00:50:00.386Z,174.4
2022-10-08T00:55:00.349Z,180.0
2022-10-08T01:00:00.384Z,180.0
2022-10-08T01:05:00.343Z,180.0
2022-10-08T01:10:00.415Z,180.0
2022-10-08T01:15:00.373Z,157.8
2022-10-08T01:20:00.401Z,143.6
2022-10-08T01:25:00.339Z,175.6
2022-10-08T01:30:00.416Z,198.4
2022-10-08T01:35:00.407Z,207.7
2022-10-08T01:40:00.376Z,202.8
2022-10-08T01:45:00.388Z,199.1
2022-10-08T01:50:00.368Z,188.8
2022-10-08T01:55:00.355Z,193.9
2022-10-08T02:00:00.401Z,188.7
2022-10-08T02:05:00.358Z,197.4
2022-10-08T02:10:00.358Z,191.3
2022-10-08T02:15:00.504Z,190.2
2022-10-08T02:20:00.383Z,187.8
2022-10-08T02:25:00.368Z,175.0
2022-10-08T02:30:00.367Z,212.9
2022-10-08T02:35:00.382Z,204.8
2022-10-08T02:40:00.422Z,195.6
2022-10-08T02:45:00.383Z,197.7
2022-10-08T02:50:00.374Z,201.2
2022-10-08T02:55:00.365Z,163.0
2022-10-08T03:00:00.371Z,175.9
2022-10-08T03:05:00.364Z,160.2
2022-10-08T03:10:00.356Z,207.5
2022-10-08T03:15:00.366Z,205.0
2022-10-08T03:20:00.352Z,202.5
2022-10-08T03:25:00.370Z,191.4
2022-10-08T03:30:00.386Z,181.3
2022-10-08T03:35:00.337Z,202.1
2022-10-08T03:40:00.397Z,201.7
2022-10-08T03:45:00.431Z,170.4
2022-10-08T03:50:00.356Z,163.6
2022-10-08T03:55:00.358Z,190.4
2022-10-08T04:00:00.396Z,202.2
2022-10-08T04:05:00.409Z,201.7
2022-10-08T04:10:00.386Z,202.1
2022-10-08T04:15:00.583Z,186.0
2022-10-08T04:20:00.392Z,197.4
2022-10-08T04:25:00.371Z,202.5
2022-10-08T04:30:00.375Z,201.9
2022-10-08T04:35:00.380Z,198.9
2022-10-08T04:40:00.464Z,197.2
2022-10-08T04:45:00.387Z,203.6
2022-10-08T04:50:00.357Z,202.5
2022-10-08T04:55:00.369Z,202.8
2022-10-08T05:00:19.642Z,202.5
2022-10-08T05:05:00.344Z,202.5
2022-10-08T05:10:00.378Z,199.9
2022-10-08T05:15:00.420Z,201.8
2022-10-08T05:20:00.360Z,199.3
2022-10-08T05:25:00.352Z,198.2
2022-10-08T05:30:00.378Z,208.3
2022-10-08T05:35:00.338Z,195.5
2022-10-08T05:40:00.346Z,198.3
2022-10-08T05:45:00.387Z,205.6
2022-10-08T05:50:00.383Z,200.4
2022-10-08T05:55:00.373Z,203.2
2022-10-08T06:00:00.365Z,201.2
2022-10-08T06:05:00.721Z,191.1
2022-10-08T06:10:00.361Z,206.8
2022-10-08T06:15:00.377Z,203.0
2022-10-08T06:20:00.380Z,203.4
2022-10-08T06:25:00.388Z,198.4
2022-10-08T06:30:00.363Z,188.3
2022-10-08T06:35:00.373Z,197.5
2022-10-08T06:40:00.376Z,186.9
2022-10-08T06:45:02.817Z,186.5
2022-10-08T06:50:00.673Z,196.1
2022-10-08T06:55:00.341Z,196.8
2022-10-08T07:00:00.738Z,200.8
2022-10-08T07:05:00.358Z,198.8
2022-10-08T07:10:00.734Z,192.9
2022-10-08T07:15:00.378Z,201.7
2022-10-08T07:20:00.810Z,189.5
2022-10-08T07:25:00.405Z,193.8
2022-10-08T07:30:00.403Z,197.5
2022-10-08T07:35:00.566Z,201.6
2022-10-08T07:40:00.366Z,206.1
2022-10-08T07:45:00.377Z,184.4
2022-10-08T07:50:00.388Z,190.4
2022-10-08T07:55:00.361Z,230.0
2022-10-08T08:00:00.411Z,195.2
2022-10-08T08:05:00.374Z,195.8
2022-10-08T08:10:00.398Z,202.0
2022-10-08T08:15:00.456Z,204.6
2022-10-08T08:20:01.504Z,192.4
2022-10-08T08:25:00.349Z,238.6
2022-10-08T08:30:00.411Z,191.8
2022-10-08T08:35:00.360Z,198.7
2022-10-08T08:40:00.374Z,199.2
2022-10-08T08:45:00.352Z,194.7
2022-10-08T08:50:00.356Z,189.4
2022-10-08T08:55:00.343Z,191.9
2022-10-08T09:00:00.372Z,239.1
2022-10-08T09:05:00.694Z,231.5
2022-10-08T09:10:00.349Z,204.5
2022-10-08T09:15:00.369Z,246.4
2022-10-08T09:20:00.392Z,221.2
2022-10-08T09:25:00.357Z,237.1
2022-10-08T09:30:00.405Z,212.2
2022-10-08T09:35:01.272Z,221.9
2022-10-08T09:40:00.355Z,218.7
2022-10-08T09:45:00.377Z,192.9
2022-10-08T09:50:00.359Z,223.8
2022-10-08T09:55:00.415Z,210.6
2022-10-08T10:00:00.397Z,214.4
2022-10-08T10:05:00.345Z,208.8
2022-10-08T10:10:00.350Z,197.3
2022-10-08T10:15:00.378Z,200.2
2022-10-08T10:20:00.391Z,236.2
2022-10-08T10:25:00.367Z,228.1
2022-10-08T10:30:00.435Z,229.9
2022-10-08T10:35:00.358Z,238.4
2022-10-08T10:40:00.419Z,247.0
2022-10-08T10:45:00.356Z,241.6
2022-10-08T10:50:00.378Z,215.0
2022-10-08T10:55:00.390Z,230.3
2022-10-08T11:00:00.384Z,235.2
2022-10-08T11:05:02.559Z,238.6
2022-10-08T11:10:00.405Z,206.6
2022-10-08T11:15:00.367Z,230.9
2022-10-08T11:20:00.354Z,233.8
2022-10-08T11:25:00.352Z,221.2
2022-10-08T11:30:00.387Z,233.3
2022-10-08T11:35:00.381Z,211.2
2022-10-08T11:40:00.374Z,224.6
2022-10-08T11:45:00.366Z,206.6
2022-10-08T11:50:00.342Z,198.7
2022-10-08T11:55:00.343Z,219.9
2022-10-08T12:00:09.105Z,209.9
2022-10-08T12:05:00.370Z,233.6
2022-10-08T12:10:00.397Z,233.5
2022-10-08T12:15:00.361Z,213.0
2022-10-08T12:20:00.368Z,223.8
2022-10-08T12:25:00.359Z,233.3
2022-10-08T12:30:00.408Z,225.6
2022-10-08T12:35:00.355Z,203.4
2022-10-08T12:40:00.390Z,236.7
2022-10-08T12:45:00.393Z,225.8
2022-10-08T12:50:00.402Z,214.9
2022-10-08T12:55:00.345Z,223.4
2022-10-08T13:00:00.379Z,254.8
2022-10-08T13:05:00.356Z,217.6
2022-10-08T13:10:00.378Z,252.6
2022-10-08T13:15:00.364Z,240.0
2022-10-08T13:20:00.389Z,222.3
2022-10-08T13:25:00.371Z,207.6
2022-10-08T13:30:00.413Z,211.9
2022-10-08T13:35:00.342Z,250.9
2022-10-08T13:40:00.371Z,238.9
2022-10-08T13:45:00.357Z,195.4
2022-10-08T13:50:00.382Z,245.7
2022-10-08T13:55:00.416Z,202.1
2022-10-08T14:00:00.412Z,219.8
2022-10-08T14:05:00.330Z,250.8
2022-10-08T14:10:00.394Z,216.0
2022-10-08T14:15:00.370Z,228.1
2022-10-08T14:20:00.372Z,198.6
2022-10-08T14:25:00.335Z,230.2
2022-10-08T14:30:00.394Z,200.4
2022-10-08T14:35:00.334Z,217.4
2022-10-08T14:40:00.374Z,220.5
2022-10-08T14:45:00.362Z,210.6
2022-10-08T14:50:00.377Z,190.6
2022-10-08T14:55:00.345Z,236.3
2022-10-08T15:00:00.390Z,249.7
2022-10-08T15:05:00.363Z,262.7
2022-10-08T15:10:00.424Z,274.4
2022-10-08T15:15:00.394Z,262.6
2022-10-08T15:20:00.367Z,271.4
2022-10-08T15:25:00.354Z,268.6
2022-10-08T15:30:00.423Z,264.9
2022-10-08T15:35:00.365Z,263.2
2022-10-08T15:40:00.352Z,268.1
2022-10-08T15:45:00.367Z,242.1
2022-10-08T15:50:00.425Z,248.5
2022-10-08T15:55:00.357Z,243.3
2022-10-08T16:00:00.381Z,233.7
2022-10-08T16:05:00.359Z,229.2
2022-10-08T16:10:00.429Z,227.9
2022-10-08T16:15:00.367Z,206.7
2022-10-08T16:20:00.394Z,199.8
2022-10-08T16:25:00.364Z,195.0
2022-10-08T16:30:00.394Z,190.7
2022-10-08T16:35:00.377Z,209.9
2022-10-08T16:40:00.749Z,216.3
2022-10-08T16:45:00.375Z,231.7
2022-10-08T16:50:00.725Z,235.1
2022-10-08T16:55:00.385Z,217.1
2022-10-08T17:00:00.844Z,241.8
2022-10-08T17:05:00.347Z,220.1
2022-10-08T17:10:00.388Z,234.9
2022-10-08T17:15:00.372Z,226.7
2022-10-08T17:20:00.359Z,227.0
2022-10-08T17:25:00.378Z,224.8
2022-10-08T17:30:00.409Z,221.8
2022-10-08T17:35:00.343Z,206.3
2022-10-08T17:40:00.445Z,219.5
2022-10-08T17:45:00.421Z,217.8
2022-10-08T17:50:00.367Z,228.0
2022-10-08T17:55:00.362Z,213.5
2022-10-08T18:00:00.394Z,229.8
2022-10-08T18:05:00.389Z,225.0
2022-10-08T18:10:00.371Z,214.4
2022-10-08T18:15:00.360Z,228.8
2022-10-08T18:20:00.424Z,232.0
2022-10-08T18:25:00.355Z,207.2
2022-10-08T18:30:00.386Z,221.0
2022-10-08T18:35:00.346Z,190.7
2022-10-08T18:40:00.379Z,220.1
2022-10-08T18:45:00.387Z,203.9
2022-10-08T18:50:00.468Z,205.8
2022-10-08T18:55:00.369Z,209.1
2022-10-08T19:00:00.414Z,223.8
2022-10-08T19:05:00.354Z,225.1
2022-10-08T19:10:00.345Z,219.4
2022-10-08T19:15:00.392Z,217.3
2022-10-08T19:20:00.375Z,217.9
2022-10-08T19:25:00.346Z,225.7
2022-10-08T19:30:00.382Z,235.6
2022-10-08T19:35:00.353Z,224.2
2022-10-08T19:40:00.370Z,206.8
2022-10-08T19:45:00.374Z,216.3
2022-10-08T19:50:00.350Z,235.1
2022-10-08T19:55:00.363Z,224.6
2022-10-08T20:00:00.363Z,234.3
2022-10-08T20:05:00.343Z,217.4
2022-10-08T20:10:00.354Z,220.6
2022-10-08T20:15:00.556Z,235.9
2022-10-08T20:20:33.104Z,227.3
2022-10-08T20:25:00.332Z,235.8
2022-10-08T20:30:00.361Z,236.3
2022-10-08T20:35:00.369Z,237.9
2022-10-08T20:40:00.387Z,230.1
2022-10-08T20:45:00.331Z,228.6
2022-10-08T20:50:00.365Z,237.5
2022-10-08T20:55:00.340Z,227.0
2022-10-08T21:00:00.378Z,234.1
2022-10-08T21:05:00.361Z,236.5
2022-10-08T21:10:00.373Z,243.2
2022-10-08T21:15:00.548Z,228.8
2022-10-08T21:20:00.371Z,222.1
2022-10-08T21:25:00.412Z,230.0
2022-10-08T21:30:00.423Z,243.4
2022-10-08T21:35:00.359Z,229.6
2022-10-08T21:40:00.379Z,209.7
2022-10-08T21:45:00.345Z,218.1
2022-10-08T21:50:00.362Z,221.4
2022-10-08T21:55:00.351Z,210.7
2022-10-08T22:00:00.489Z,224.2
2022-10-08T22:05:00.334Z,224.2
2022-10-08T22:10:00.362Z,201.5
2022-10-08T22:15:00.347Z,219.1
2022-10-08T22:20:00.374Z,229.3
2022-10-08T22:25:00.379Z,227.7
2022-10-08T22:30:00.402Z,228.9
2022-10-08T22:35:00.498Z,217.7
2022-10-08T22:40:00.422Z,227.4
2022-10-08T22:45:00.384Z,235.1
2022-10-08T22:50:00.416Z,229.3
2022-10-08T22:55:00.408Z,214.4
2022-10-08T23:00:00.409Z,230.5
2022-10-08T23:05:00.519Z,227.1
2022-10-08T23:10:00.415Z,206.6
2022-10-08T23:15:00.402Z,220.6
2022-10-08T23:20:00.410Z,221.7
2022-10-08T23:25:00.372Z,235.9
2022-10-08T23:30:00.403Z,212.9
2022-10-08T23:35:00.433Z,229.5
2022-10-08T23:40:00.405Z,223.0
2022-10-08T23:45:00.412Z,228.9
2022-10-08T23:50:00.611Z,234.3
2022-10-08T23:55:00.409Z,215.6
